sensor_id;sensor_type;location;lat;lon;timestamp;temperature;humidity
27633;DHT22;15046;50.930;13.334;2022-12-07T00:01:32;1.60;99.90
27633;DHT22;15046;50.930;13.334;2022-12-07T00:04:00;1.60;99.90
27633;DHT22;15046;50.930;13.334;2022-12-07T00:06:31;1.60;99.90
27633;DHT22;15046;50.930;13.334;2022-12-07T00:08:57;1.60;99.90
27633;DHT22;15046;50.930;13.334;2022-12-07T00:11:23;1.60;99.90
27633;DHT22;15046;50.930;13.334;2022-12-07T00:13:53;1.60;99.90
27633;DHT22;15046;50.930;13.334;2022-12-07T00:16:21;1.60;99.90
27633;DHT22;15046;50.930;13.334;2022-12-07T00:18:47;1.60;99.90
27633;DHT22;15046;50.930;13.334;2022-12-07T00:21:19;1.60;99.90
27633;DHT22;15046;50.930;13.334;2022-12-07T00:23:46;1.60;99.90
27633;DHT22;15046;50.930;13.334;2022-12-07T00:26:15;1.60;99.90
27633;DHT22;15046;50.930;13.334;2022-12-07T00:28:45;1.60;99.90
27633;DHT22;15046;50.930;13.334;2022-12-07T00:31:13;1.50;99.90
27633;DHT22;15046;50.930;13.334;2022-12-07T00:33:39;1.50;99.90
27633;DHT22;15046;50.930;13.334;2022-12-07T00:36:08;1.60;99.90
27633;DHT22;15046;50.930;13.334;2022-12-07T00:38:35;1.50;99.90
27633;DHT22;15046;50.930;13.334;2022-12-07T00:41:07;1.50;99.90
27633;DHT22;15046;50.930;13.334;2022-12-07T00:43:33;1.50;99.90
27633;DHT22;15046;50.930;13.334;2022-12-07T00:45:59;1.50;99.90
27633;DHT22;15046;50.930;13.334;2022-12-07T00:48:25;1.50;99.90
27633;DHT22;15046;50.930;13.334;2022-12-07T00:50:51;1.40;99.90
27633;DHT22;15046;50.930;13.334;2022-12-07T00:53:17;1.40;99.90
27633;DHT22;15046;50.930;13.334;2022-12-07T00:55:44;1.40;99.90
27633;DHT22;15046;50.930;13.334;2022-12-07T00:58:10;1.40;99.90
27633;DHT22;15046;50.930;13.334;2022-12-07T01:00:38;1.40;99.90
27633;DHT22;15046;50.930;13.334;2022-12-07T01:03:05;1.40;99.90
27633;DHT22;15046;50.930;13.334;2022-12-07T01:05:31;1.40;99.90
27633;DHT22;15046;50.930;13.334;2022-12-07T01:07:56;1.40;99.90
27633;DHT22;15046;50.930;13.334;2022-12-07T01:10:22;1.40;99.90
27633;DHT22;15046;50.930;13.334;2022-12-07T01:12:48;1.40;99.90
27633;DHT22;15046;50.930;13.334;2022-12-07T01:15:14;1.40;99.90
27633;DHT22;15046;50.930;13.334;2022-12-07T01:17:40;1.30;99.90
27633;DHT22;15046;50.930;13.334;2022-12-07T01:20:06;1.30;99.90
27633;DHT22;15046;50.930;13.334;2022-12-07T01:22:40;1.30;99.90
27633;DHT22;15046;50.930;13.334;2022-12-07T01:25:07;1.30;99.90
27633;DHT22;15046;50.930;13.334;2022-12-07T01:27:34;1.30;99.90
27633;DHT22;15046;50.930;13.334;2022-12-07T01:30:00;1.30;99.90
27633;DHT22;15046;50.930;13.334;2022-12-07T01:32:27;1.40;99.90
27633;DHT22;15046;50.930;13.334;2022-12-07T01:34:53;1.30;99.90
27633;DHT22;15046;50.930;13.334;2022-12-07T01:37:19;1.30;99.90
27633;DHT22;15046;50.930;13.334;2022-12-07T01:39:46;1.30;99.90
27633;DHT22;15046;50.930;13.334;2022-12-07T01:42:13;1.30;99.90
27633;DHT22;15046;50.930;13.334;2022-12-07T01:47:45;1.40;99.90
27633;DHT22;15046;50.930;13.334;2022-12-07T01:50:12;1.40;99.90
27633;DHT22;15046;50.930;13.334;2022-12-07T01:52:39;1.40;99.90
27633;DHT22;15046;50.930;13.334;2022-12-07T01:55:10;1.40;99.90
27633;DHT22;15046;50.930;13.334;2022-12-07T01:57:41;1.40;99.90
27633;DHT22;15046;50.930;13.334;2022-12-07T02:00:09;1.40;99.90
27633;DHT22;15046;50.930;13.334;2022-12-07T02:02:51;1.40;99.90
27633;DHT22;15046;50.930;13.334;2022-12-07T02:05:18;1.40;99.90
27633;DHT22;15046;50.930;13.334;2022-12-07T02:07:46;1.50;99.90
27633;DHT22;15046;50.930;13.334;2022-12-07T02:10:17;1.50;99.90
27633;DHT22;15046;50.930;13.334;2022-12-07T02:12:45;1.50;99.90
27633;DHT22;15046;50.930;13.334;2022-12-07T02:15:13;1.50;99.90
27633;DHT22;15046;50.930;13.334;2022-12-07T02:28:19;1.50;99.90
27633;DHT22;15046;50.930;13.334;2022-12-07T02:30:52;1.50;99.90
27633;DHT22;15046;50.930;13.334;2022-12-07T02:36:16;1.50;99.90
27633;DHT22;15046;50.930;13.334;2022-12-07T02:41:29;1.40;99.90
27633;DHT22;15046;50.930;13.334;2022-12-07T02:44:07;1.40;99.90
27633;DHT22;15046;50.930;13.334;2022-12-07T02:46:38;1.40;99.90
27633;DHT22;15046;50.930;13.334;2022-12-07T02:49:28;1.40;99.90
27633;DHT22;15046;50.930;13.334;2022-12-07T02:51:55;1.40;99.90
27633;DHT22;15046;50.930;13.334;2022-12-07T02:54:21;1.30;99.90
27633;DHT22;15046;50.930;13.334;2022-12-07T02:56:52;1.30;99.90
27633;DHT22;15046;50.930;13.334;2022-12-07T02:59:31;1.30;99.90
27633;DHT22;15046;50.930;13.334;2022-12-07T03:02:32;1.20;99.90
27633;DHT22;15046;50.930;13.334;2022-12-07T03:16:17;0.70;99.90
27633;DHT22;15046;50.930;13.334;2022-12-07T03:21:25;0.60;99.90
27633;DHT22;15046;50.930;13.334;2022-12-07T03:23:55;0.60;99.90
27633;DHT22;15046;50.930;13.334;2022-12-07T03:26:28;0.50;99.90
27633;DHT22;15046;50.930;13.334;2022-12-07T03:28:59;0.50;99.90
27633;DHT22;15046;50.930;13.334;2022-12-07T03:31:29;0.60;99.90
27633;DHT22;15046;50.930;13.334;2022-12-07T03:37:03;0.60;99.90
27633;DHT22;15046;50.930;13.334;2022-12-07T03:39:34;0.60;99.90
27633;DHT22;15046;50.930;13.334;2022-12-07T03:42:04;0.70;99.90
27633;DHT22;15046;50.930;13.334;2022-12-07T03:44:31;0.70;99.90
27633;DHT22;15046;50.930;13.334;2022-12-07T03:47:14;0.80;99.90
27633;DHT22;15046;50.930;13.334;2022-12-07T03:49:52;0.80;99.90
27633;DHT22;15046;50.930;13.334;2022-12-07T03:52:42;0.90;99.90
27633;DHT22;15046;50.930;13.334;2022-12-07T03:55:17;0.90;99.90
27633;DHT22;15046;50.930;13.334;2022-12-07T03:57:45;0.90;99.90
27633;DHT22;15046;50.930;13.334;2022-12-07T04:00:13;0.80;99.90
27633;DHT22;15046;50.930;13.334;2022-12-07T04:02:39;0.80;99.90
27633;DHT22;15046;50.930;13.334;2022-12-07T04:05:06;0.70;99.90
27633;DHT22;15046;50.930;13.334;2022-12-07T04:07:32;0.70;99.90
27633;DHT22;15046;50.930;13.334;2022-12-07T04:09:58;0.70;99.90
27633;DHT22;15046;50.930;13.334;2022-12-07T04:12:24;0.60;99.90
27633;DHT22;15046;50.930;13.334;2022-12-07T04:14:50;0.60;99.90
27633;DHT22;15046;50.930;13.334;2022-12-07T04:17:15;0.50;99.90
27633;DHT22;15046;50.930;13.334;2022-12-07T04:19:41;0.50;99.90
27633;DHT22;15046;50.930;13.334;2022-12-07T04:22:08;0.40;99.90
27633;DHT22;15046;50.930;13.334;2022-12-07T04:24:34;0.40;99.90
27633;DHT22;15046;50.930;13.334;2022-12-07T04:27:00;0.40;99.90
27633;DHT22;15046;50.930;13.334;2022-12-07T04:29:26;0.40;99.90
27633;DHT22;15046;50.930;13.334;2022-12-07T04:31:52;0.40;99.90
27633;DHT22;15046;50.930;13.334;2022-12-07T04:34:19;0.40;99.90
27633;DHT22;15046;50.930;13.334;2022-12-07T04:36:45;0.40;99.90
27633;DHT22;15046;50.930;13.334;2022-12-07T04:39:22;0.30;99.90
27633;DHT22;15046;50.930;13.334;2022-12-07T04:41:48;0.30;99.90
27633;DHT22;15046;50.930;13.334;2022-12-07T04:44:14;0.30;99.90
27633;DHT22;15046;50.930;13.334;2022-12-07T04:46:41;0.30;99.90
27633;DHT22;15046;50.930;13.334;2022-12-07T04:49:07;0.40;99.90
27633;DHT22;15046;50.930;13.334;2022-12-07T04:51:33;0.40;99.90
27633;DHT22;15046;50.930;13.334;2022-12-07T04:53:59;0.40;99.90
27633;DHT22;15046;50.930;13.334;2022-12-07T04:56:25;0.40;99.90
27633;DHT22;15046;50.930;13.334;2022-12-07T04:58:52;0.40;99.90
27633;DHT22;15046;50.930;13.334;2022-12-07T05:01:19;0.30;99.90
27633;DHT22;15046;50.930;13.334;2022-12-07T05:03:45;0.30;99.90
27633;DHT22;15046;50.930;13.334;2022-12-07T05:06:11;0.30;99.90
27633;DHT22;15046;50.930;13.334;2022-12-07T05:08:37;0.30;99.90
27633;DHT22;15046;50.930;13.334;2022-12-07T05:11:04;0.30;99.90
27633;DHT22;15046;50.930;13.334;2022-12-07T05:13:34;0.20;99.90
27633;DHT22;15046;50.930;13.334;2022-12-07T05:16:00;0.20;99.90
27633;DHT22;15046;50.930;13.334;2022-12-07T05:18:26;0.30;99.90
27633;DHT22;15046;50.930;13.334;2022-12-07T05:20:52;0.40;99.90
27633;DHT22;15046;50.930;13.334;2022-12-07T05:23:18;0.50;99.90
27633;DHT22;15046;50.930;13.334;2022-12-07T05:25:45;0.50;99.90
27633;DHT22;15046;50.930;13.334;2022-12-07T05:28:11;0.60;99.90
27633;DHT22;15046;50.930;13.334;2022-12-07T05:30:37;0.70;99.90
27633;DHT22;15046;50.930;13.334;2022-12-07T05:33:03;0.80;99.90
27633;DHT22;15046;50.930;13.334;2022-12-07T05:35:29;0.80;99.90
27633;DHT22;15046;50.930;13.334;2022-12-07T05:37:55;0.80;99.90
27633;DHT22;15046;50.930;13.334;2022-12-07T05:40:22;0.80;99.90
27633;DHT22;15046;50.930;13.334;2022-12-07T05:42:48;0.90;99.90
27633;DHT22;15046;50.930;13.334;2022-12-07T05:45:13;0.80;99.90
27633;DHT22;15046;50.930;13.334;2022-12-07T05:47:39;0.90;99.90
27633;DHT22;15046;50.930;13.334;2022-12-07T05:50:06;0.90;99.90
27633;DHT22;15046;50.930;13.334;2022-12-07T05:52:32;0.90;99.90
27633;DHT22;15046;50.930;13.334;2022-12-07T05:54:57;1.00;99.90
27633;DHT22;15046;50.930;13.334;2022-12-07T05:57:23;1.00;99.90
27633;DHT22;15046;50.930;13.334;2022-12-07T05:59:49;1.00;99.90
27633;DHT22;15046;50.930;13.334;2022-12-07T06:02:16;1.10;99.90
27633;DHT22;15046;50.930;13.334;2022-12-07T06:04:46;1.10;99.90
27633;DHT22;15046;50.930;13.334;2022-12-07T06:07:13;1.10;99.90
27633;DHT22;15046;50.930;13.334;2022-12-07T06:09:40;1.10;99.90
27633;DHT22;15046;50.930;13.334;2022-12-07T06:12:06;1.20;99.90
27633;DHT22;15046;50.930;13.334;2022-12-07T06:14:51;1.20;99.90
27633;DHT22;15046;50.930;13.334;2022-12-07T06:17:17;1.10;99.90
27633;DHT22;15046;50.930;13.334;2022-12-07T06:19:42;1.10;99.90
27633;DHT22;15046;50.930;13.334;2022-12-07T06:22:09;1.10;99.90
27633;DHT22;15046;50.930;13.334;2022-12-07T06:24:37;1.10;99.90
27633;DHT22;15046;50.930;13.334;2022-12-07T06:27:03;1.10;99.90
27633;DHT22;15046;50.930;13.334;2022-12-07T06:29:30;1.10;99.90
27633;DHT22;15046;50.930;13.334;2022-12-07T06:31:56;1.10;99.90
27633;DHT22;15046;50.930;13.334;2022-12-07T06:34:23;1.10;99.90
27633;DHT22;15046;50.930;13.334;2022-12-07T06:36:50;1.10;99.90
27633;DHT22;15046;50.930;13.334;2022-12-07T06:39:18;1.00;99.90
27633;DHT22;15046;50.930;13.334;2022-12-07T06:41:44;1.10;99.90
27633;DHT22;15046;50.930;13.334;2022-12-07T06:44:10;1.10;99.90
27633;DHT22;15046;50.930;13.334;2022-12-07T06:46:36;1.10;99.90
27633;DHT22;15046;50.930;13.334;2022-12-07T06:49:03;1.10;99.90
27633;DHT22;15046;50.930;13.334;2022-12-07T06:51:29;1.10;99.90
27633;DHT22;15046;50.930;13.334;2022-12-07T06:53:55;1.10;99.90
27633;DHT22;15046;50.930;13.334;2022-12-07T06:56:21;1.10;99.90
27633;DHT22;15046;50.930;13.334;2022-12-07T06:58:48;1.10;99.90
27633;DHT22;15046;50.930;13.334;2022-12-07T07:01:16;1.10;99.90
27633;DHT22;15046;50.930;13.334;2022-12-07T07:03:42;1.10;99.90
27633;DHT22;15046;50.930;13.334;2022-12-07T07:06:09;1.10;99.90
27633;DHT22;15046;50.930;13.334;2022-12-07T07:08:35;1.10;99.90
27633;DHT22;15046;50.930;13.334;2022-12-07T07:11:01;1.10;99.90
27633;DHT22;15046;50.930;13.334;2022-12-07T07:13:27;1.10;99.90
27633;DHT22;15046;50.930;13.334;2022-12-07T07:15:54;1.10;99.90
27633;DHT22;15046;50.930;13.334;2022-12-07T07:18:19;1.10;99.90
27633;DHT22;15046;50.930;13.334;2022-12-07T07:20:45;1.10;99.90
27633;DHT22;15046;50.930;13.334;2022-12-07T07:23:11;1.10;99.90
27633;DHT22;15046;50.930;13.334;2022-12-07T07:25:37;1.10;99.90
27633;DHT22;15046;50.930;13.334;2022-12-07T07:28:03;1.10;99.90
27633;DHT22;15046;50.930;13.334;2022-12-07T07:30:29;1.10;99.90
27633;DHT22;15046;50.930;13.334;2022-12-07T07:32:59;1.10;99.90
27633;DHT22;15046;50.930;13.334;2022-12-07T07:35:25;1.20;99.90
27633;DHT22;15046;50.930;13.334;2022-12-07T07:37:51;1.20;99.90
27633;DHT22;15046;50.930;13.334;2022-12-07T07:40:17;1.10;99.90
27633;DHT22;15046;50.930;13.334;2022-12-07T07:42:42;1.20;99.90
27633;DHT22;15046;50.930;13.334;2022-12-07T07:45:08;1.20;99.90
27633;DHT22;15046;50.930;13.334;2022-12-07T07:47:34;1.20;99.90
27633;DHT22;15046;50.930;13.334;2022-12-07T07:50:00;1.20;99.90
27633;DHT22;15046;50.930;13.334;2022-12-07T07:52:26;1.30;99.90
27633;DHT22;15046;50.930;13.334;2022-12-07T07:54:53;1.30;99.90
27633;DHT22;15046;50.930;13.334;2022-12-07T07:57:19;1.40;99.90
27633;DHT22;15046;50.930;13.334;2022-12-07T07:59:45;1.40;99.90
27633;DHT22;15046;50.930;13.334;2022-12-07T08:02:15;1.50;99.90
27633;DHT22;15046;50.930;13.334;2022-12-07T08:04:42;1.50;99.90
27633;DHT22;15046;50.930;13.334;2022-12-07T08:07:08;1.50;99.90
27633;DHT22;15046;50.930;13.334;2022-12-07T08:09:34;1.50;99.90
27633;DHT22;15046;50.930;13.334;2022-12-07T08:12:00;1.60;99.90
27633;DHT22;15046;50.930;13.334;2022-12-07T08:14:26;1.60;99.90
27633;DHT22;15046;50.930;13.334;2022-12-07T08:16:53;1.60;99.90
27633;DHT22;15046;50.930;13.334;2022-12-07T08:19:18;1.60;99.90
27633;DHT22;15046;50.930;13.334;2022-12-07T08:21:44;1.60;99.90
27633;DHT22;15046;50.930;13.334;2022-12-07T08:24:10;1.70;99.90
27633;DHT22;15046;50.930;13.334;2022-12-07T08:26:36;1.70;99.90
27633;DHT22;15046;50.930;13.334;2022-12-07T08:29:01;1.70;99.90
27633;DHT22;15046;50.930;13.334;2022-12-07T08:31:27;1.70;99.90
27633;DHT22;15046;50.930;13.334;2022-12-07T08:33:54;1.80;99.90
27633;DHT22;15046;50.930;13.334;2022-12-07T08:36:20;1.80;99.90
27633;DHT22;15046;50.930;13.334;2022-12-07T08:38:48;1.80;99.90
27633;DHT22;15046;50.930;13.334;2022-12-07T08:41:14;1.80;99.90
27633;DHT22;15046;50.930;13.334;2022-12-07T08:43:40;1.80;99.90
27633;DHT22;15046;50.930;13.334;2022-12-07T08:48:33;1.90;99.90
27633;DHT22;15046;50.930;13.334;2022-12-07T08:51:01;2.00;99.90
27633;DHT22;15046;50.930;13.334;2022-12-07T08:53:28;2.00;99.90
27633;DHT22;15046;50.930;13.334;2022-12-07T08:55:55;2.10;99.90
27633;DHT22;15046;50.930;13.334;2022-12-07T08:58:22;2.10;99.90
27633;DHT22;15046;50.930;13.334;2022-12-07T09:00:48;2.20;99.90
27633;DHT22;15046;50.930;13.334;2022-12-07T09:03:13;2.20;99.90
27633;DHT22;15046;50.930;13.334;2022-12-07T09:05:39;2.30;99.90
27633;DHT22;15046;50.930;13.334;2022-12-07T09:08:05;2.30;99.90
27633;DHT22;15046;50.930;13.334;2022-12-07T09:10:32;2.30;99.90
27633;DHT22;15046;50.930;13.334;2022-12-07T09:12:58;2.30;99.90
27633;DHT22;15046;50.930;13.334;2022-12-07T09:15:28;2.40;99.90
27633;DHT22;15046;50.930;13.334;2022-12-07T09:17:54;2.40;99.90
27633;DHT22;15046;50.930;13.334;2022-12-07T09:20:20;2.50;99.90
27633;DHT22;15046;50.930;13.334;2022-12-07T09:22:47;2.60;99.90
27633;DHT22;15046;50.930;13.334;2022-12-07T09:25:13;2.80;99.90
27633;DHT22;15046;50.930;13.334;2022-12-07T09:27:39;2.90;99.90
27633;DHT22;15046;50.930;13.334;2022-12-07T09:30:05;3.00;99.90
27633;DHT22;15046;50.930;13.334;2022-12-07T09:32:31;3.00;99.90
27633;DHT22;15046;50.930;13.334;2022-12-07T09:34:57;2.90;99.90
27633;DHT22;15046;50.930;13.334;2022-12-07T09:37:23;3.00;99.90
27633;DHT22;15046;50.930;13.334;2022-12-07T09:39:48;3.00;99.90
27633;DHT22;15046;50.930;13.334;2022-12-07T09:42:34;3.10;99.90
27633;DHT22;15046;50.930;13.334;2022-12-07T09:45:01;3.10;99.90
27633;DHT22;15046;50.930;13.334;2022-12-07T09:47:28;2.90;99.90
27633;DHT22;15046;50.930;13.334;2022-12-07T09:50:04;2.80;99.90
27633;DHT22;15046;50.930;13.334;2022-12-07T09:52:31;2.80;99.90
27633;DHT22;15046;50.930;13.334;2022-12-07T09:54:57;2.70;99.90
27633;DHT22;15046;50.930;13.334;2022-12-07T09:57:33;2.70;99.90
27633;DHT22;15046;50.930;13.334;2022-12-07T10:00:15;2.70;99.90
27633;DHT22;15046;50.930;13.334;2022-12-07T10:05:14;2.70;99.90
27633;DHT22;15046;50.930;13.334;2022-12-07T10:07:41;2.80;99.90
27633;DHT22;15046;50.930;13.334;2022-12-07T10:10:15;2.80;99.90
27633;DHT22;15046;50.930;13.334;2022-12-07T10:13:16;2.90;99.90
27633;DHT22;15046;50.930;13.334;2022-12-07T10:15:52;3.10;99.90
27633;DHT22;15046;50.930;13.334;2022-12-07T10:18:44;3.20;99.90
27633;DHT22;15046;50.930;13.334;2022-12-07T10:21:14;3.30;99.90
27633;DHT22;15046;50.930;13.334;2022-12-07T10:31:43;3.70;99.90
27633;DHT22;15046;50.930;13.334;2022-12-07T10:34:31;3.70;99.90
27633;DHT22;15046;50.930;13.334;2022-12-07T10:37:13;3.70;99.90
27633;DHT22;15046;50.930;13.334;2022-12-07T10:39:58;3.60;99.90
27633;DHT22;15046;50.930;13.334;2022-12-07T10:42:31;3.60;99.90
27633;DHT22;15046;50.930;13.334;2022-12-07T10:45:09;3.60;99.90
27633;DHT22;15046;50.930;13.334;2022-12-07T10:53:10;3.60;99.90
27633;DHT22;15046;50.930;13.334;2022-12-07T10:55:54;3.60;99.90
27633;DHT22;15046;50.930;13.334;2022-12-07T11:07:00;3.50;99.90
27633;DHT22;15046;50.930;13.334;2022-12-07T11:18:14;3.30;99.90
27633;DHT22;15046;50.930;13.334;2022-12-07T11:26:02;3.10;99.90
27633;DHT22;15046;50.930;13.334;2022-12-07T11:34:59;3.10;99.90
27633;DHT22;15046;50.930;13.334;2022-12-07T11:37:32;3.00;99.90
27633;DHT22;15046;50.930;13.334;2022-12-07T11:40:08;3.00;99.90
27633;DHT22;15046;50.930;13.334;2022-12-07T11:42:42;3.10;99.90
27633;DHT22;15046;50.930;13.334;2022-12-07T11:45:16;3.10;99.90
27633;DHT22;15046;50.930;13.334;2022-12-07T11:47:51;3.20;99.90
27633;DHT22;15046;50.930;13.334;2022-12-07T11:50:38;3.20;99.90
27633;DHT22;15046;50.930;13.334;2022-12-07T12:01:26;3.10;99.90
27633;DHT22;15046;50.930;13.334;2022-12-07T12:06:24;3.10;99.90
27633;DHT22;15046;50.930;13.334;2022-12-07T12:09:00;3.10;99.90
27633;DHT22;15046;50.930;13.334;2022-12-07T12:11:46;3.10;99.90
27633;DHT22;15046;50.930;13.334;2022-12-07T12:17:11;2.80;99.90
27633;DHT22;15046;50.930;13.334;2022-12-07T12:22:18;2.60;99.90
27633;DHT22;15046;50.930;13.334;2022-12-07T12:24:50;2.60;99.90
27633;DHT22;15046;50.930;13.334;2022-12-07T12:29:53;2.50;99.90
27633;DHT22;15046;50.930;13.334;2022-12-07T12:32:42;2.40;99.90
27633;DHT22;15046;50.930;13.334;2022-12-07T12:35:29;2.40;99.90
27633;DHT22;15046;50.930;13.334;2022-12-07T12:38:27;2.40;99.90
27633;DHT22;15046;50.930;13.334;2022-12-07T12:40:55;2.40;99.90
27633;DHT22;15046;50.930;13.334;2022-12-07T12:43:45;2.40;99.90
27633;DHT22;15046;50.930;13.334;2022-12-07T12:49:37;2.50;99.90
27633;DHT22;15046;50.930;13.334;2022-12-07T12:55:11;2.50;99.90
27633;DHT22;15046;50.930;13.334;2022-12-07T12:57:38;2.60;99.90
27633;DHT22;15046;50.930;13.334;2022-12-07T13:00:36;2.60;99.90
27633;DHT22;15046;50.930;13.334;2022-12-07T13:03:02;2.60;99.90
27633;DHT22;15046;50.930;13.334;2022-12-07T13:05:31;2.60;99.90
27633;DHT22;15046;50.930;13.334;2022-12-07T13:08:24;2.70;99.90
27633;DHT22;15046;50.930;13.334;2022-12-07T13:10:49;2.70;99.90
27633;DHT22;15046;50.930;13.334;2022-12-07T13:15:52;2.70;99.90
27633;DHT22;15046;50.930;13.334;2022-12-07T13:23:56;2.60;99.90
27633;DHT22;15046;50.930;13.334;2022-12-07T13:26:37;2.50;99.90
27633;DHT22;15046;50.930;13.334;2022-12-07T13:29:12;2.40;99.90
27633;DHT22;15046;50.930;13.334;2022-12-07T13:31:52;2.30;99.90
27633;DHT22;15046;50.930;13.334;2022-12-07T13:34:36;2.30;99.90
27633;DHT22;15046;50.930;13.334;2022-12-07T13:37:25;2.30;99.90
27633;DHT22;15046;50.930;13.334;2022-12-07T13:39:55;2.40;99.90
27633;DHT22;15046;50.930;13.334;2022-12-07T13:44:55;2.40;99.90
27633;DHT22;15046;50.930;13.334;2022-12-07T13:47:48;2.40;99.90
27633;DHT22;15046;50.930;13.334;2022-12-07T13:50:30;2.40;99.90
27633;DHT22;15046;50.930;13.334;2022-12-07T13:52:58;2.40;99.90
27633;DHT22;15046;50.930;13.334;2022-12-07T13:55:24;2.40;99.90
27633;DHT22;15046;50.930;13.334;2022-12-07T13:57:52;2.50;99.90
27633;DHT22;15046;50.930;13.334;2022-12-07T14:00:21;2.50;99.90
27633;DHT22;15046;50.930;13.334;2022-12-07T14:05:29;2.60;99.90
27633;DHT22;15046;50.930;13.334;2022-12-07T14:08:21;2.50;99.90
27633;DHT22;15046;50.930;13.334;2022-12-07T14:13:35;2.70;99.90
27633;DHT22;15046;50.930;13.334;2022-12-07T14:16:02;2.70;99.90
27633;DHT22;15046;50.930;13.334;2022-12-07T14:18:40;2.70;99.90
27633;DHT22;15046;50.930;13.334;2022-12-07T14:23:36;2.80;99.90
27633;DHT22;15046;50.930;13.334;2022-12-07T14:26:15;2.80;99.90
27633;DHT22;15046;50.930;13.334;2022-12-07T14:28:42;2.80;99.90
27633;DHT22;15046;50.930;13.334;2022-12-07T14:31:15;2.80;99.90
27633;DHT22;15046;50.930;13.334;2022-12-07T14:33:41;2.70;99.90
27633;DHT22;15046;50.930;13.334;2022-12-07T14:36:14;2.70;99.90
27633;DHT22;15046;50.930;13.334;2022-12-07T14:38:40;2.70;99.90
27633;DHT22;15046;50.930;13.334;2022-12-07T14:41:13;2.70;99.90
27633;DHT22;15046;50.930;13.334;2022-12-07T14:43:59;2.70;99.90
27633;DHT22;15046;50.930;13.334;2022-12-07T14:46:25;2.60;99.90
27633;DHT22;15046;50.930;13.334;2022-12-07T14:48:51;2.60;99.90
27633;DHT22;15046;50.930;13.334;2022-12-07T14:51:16;2.60;99.90
27633;DHT22;15046;50.930;13.334;2022-12-07T14:53:52;2.60;99.90
27633;DHT22;15046;50.930;13.334;2022-12-07T14:56:18;2.60;99.90
27633;DHT22;15046;50.930;13.334;2022-12-07T14:58:44;2.60;99.90
27633;DHT22;15046;50.930;13.334;2022-12-07T15:01:10;2.60;99.90
27633;DHT22;15046;50.930;13.334;2022-12-07T15:03:35;2.60;99.90
27633;DHT22;15046;50.930;13.334;2022-12-07T15:06:05;2.60;99.90
27633;DHT22;15046;50.930;13.334;2022-12-07T15:08:31;2.60;99.90
27633;DHT22;15046;50.930;13.334;2022-12-07T15:10:57;2.60;99.90
27633;DHT22;15046;50.930;13.334;2022-12-07T15:13:22;2.60;99.90
27633;DHT22;15046;50.930;13.334;2022-12-07T15:16:16;2.60;99.90
27633;DHT22;15046;50.930;13.334;2022-12-07T15:18:43;2.60;99.90
27633;DHT22;15046;50.930;13.334;2022-12-07T15:21:15;2.60;99.90
27633;DHT22;15046;50.930;13.334;2022-12-07T15:23:42;2.50;99.90
27633;DHT22;15046;50.930;13.334;2022-12-07T15:26:10;2.50;99.90
27633;DHT22;15046;50.930;13.334;2022-12-07T15:28:37;2.40;99.90
27633;DHT22;15046;50.930;13.334;2022-12-07T15:31:02;2.40;99.90
27633;DHT22;15046;50.930;13.334;2022-12-07T15:33:28;2.40;99.90
27633;DHT22;15046;50.930;13.334;2022-12-07T15:35:54;2.40;99.90
27633;DHT22;15046;50.930;13.334;2022-12-07T15:38:20;2.50;99.90
27633;DHT22;15046;50.930;13.334;2022-12-07T15:40:48;2.50;99.90
27633;DHT22;15046;50.930;13.334;2022-12-07T15:43:14;2.50;99.90
27633;DHT22;15046;50.930;13.334;2022-12-07T15:45:58;2.50;99.90
27633;DHT22;15046;50.930;13.334;2022-12-07T15:48:25;2.40;99.90
27633;DHT22;15046;50.930;13.334;2022-12-07T15:50:51;2.40;99.90
27633;DHT22;15046;50.930;13.334;2022-12-07T15:53:17;2.40;99.90
27633;DHT22;15046;50.930;13.334;2022-12-07T15:55:42;2.40;99.90
27633;DHT22;15046;50.930;13.334;2022-12-07T15:58:08;2.40;99.90
27633;DHT22;15046;50.930;13.334;2022-12-07T16:00:34;2.40;99.90
27633;DHT22;15046;50.930;13.334;2022-12-07T16:03:00;2.40;99.90
27633;DHT22;15046;50.930;13.334;2022-12-07T16:05:26;2.40;99.90
27633;DHT22;15046;50.930;13.334;2022-12-07T16:07:51;2.40;99.90
27633;DHT22;15046;50.930;13.334;2022-12-07T16:10:17;2.40;99.90
27633;DHT22;15046;50.930;13.334;2022-12-07T16:12:43;2.40;99.90
27633;DHT22;15046;50.930;13.334;2022-12-07T16:15:09;2.40;99.90
27633;DHT22;15046;50.930;13.334;2022-12-07T16:17:35;2.40;99.90
27633;DHT22;15046;50.930;13.334;2022-12-07T16:20:01;2.40;99.90
27633;DHT22;15046;50.930;13.334;2022-12-07T16:22:26;2.40;99.90
27633;DHT22;15046;50.930;13.334;2022-12-07T16:24:52;2.40;99.90
27633;DHT22;15046;50.930;13.334;2022-12-07T16:27:18;2.40;99.90
27633;DHT22;15046;50.930;13.334;2022-12-07T16:29:44;2.40;99.90
27633;DHT22;15046;50.930;13.334;2022-12-07T16:32:10;2.40;99.90
27633;DHT22;15046;50.930;13.334;2022-12-07T16:34:36;2.40;99.90
27633;DHT22;15046;50.930;13.334;2022-12-07T16:37:02;2.40;99.90
27633;DHT22;15046;50.930;13.334;2022-12-07T16:39:27;2.40;99.90
27633;DHT22;15046;50.930;13.334;2022-12-07T16:41:53;2.40;99.90
27633;DHT22;15046;50.930;13.334;2022-12-07T16:44:19;2.40;99.90
27633;DHT22;15046;50.930;13.334;2022-12-07T16:46:45;2.40;99.90
27633;DHT22;15046;50.930;13.334;2022-12-07T16:49:12;2.40;99.90
27633;DHT22;15046;50.930;13.334;2022-12-07T16:51:38;2.40;99.90
27633;DHT22;15046;50.930;13.334;2022-12-07T16:54:05;2.40;99.90
27633;DHT22;15046;50.930;13.334;2022-12-07T16:56:30;2.40;99.90
27633;DHT22;15046;50.930;13.334;2022-12-07T16:58:59;2.40;99.90
27633;DHT22;15046;50.930;13.334;2022-12-07T17:01:25;2.40;99.90
27633;DHT22;15046;50.930;13.334;2022-12-07T17:03:53;2.40;99.90
27633;DHT22;15046;50.930;13.334;2022-12-07T17:06:20;2.40;99.90
27633;DHT22;15046;50.930;13.334;2022-12-07T17:08:47;2.40;99.90
27633;DHT22;15046;50.930;13.334;2022-12-07T17:13:46;2.30;99.90
27633;DHT22;15046;50.930;13.334;2022-12-07T17:16:30;2.30;99.90
27633;DHT22;15046;50.930;13.334;2022-12-07T17:18:56;2.30;99.90
27633;DHT22;15046;50.930;13.334;2022-12-07T17:21:22;2.30;99.90
27633;DHT22;15046;50.930;13.334;2022-12-07T17:23:48;2.30;99.90
27633;DHT22;15046;50.930;13.334;2022-12-07T17:26:23;2.30;99.90
27633;DHT22;15046;50.930;13.334;2022-12-07T17:28:49;2.30;99.90
27633;DHT22;15046;50.930;13.334;2022-12-07T17:31:18;2.30;99.90
27633;DHT22;15046;50.930;13.334;2022-12-07T17:33:44;2.30;99.90
27633;DHT22;15046;50.930;13.334;2022-12-07T17:36:16;2.30;99.90
27633;DHT22;15046;50.930;13.334;2022-12-07T17:38:42;2.30;99.90
27633;DHT22;15046;50.930;13.334;2022-12-07T17:41:13;2.30;99.90
27633;DHT22;15046;50.930;13.334;2022-12-07T17:44:00;2.30;99.90
27633;DHT22;15046;50.930;13.334;2022-12-07T17:46:26;2.30;99.90
27633;DHT22;15046;50.930;13.334;2022-12-07T17:48:54;2.30;99.90
27633;DHT22;15046;50.930;13.334;2022-12-07T17:51:20;2.30;99.90
27633;DHT22;15046;50.930;13.334;2022-12-07T17:54:04;2.20;99.90